Coburn, West Virginia
Current Conditions -  °F | °C
As of 8:53 AM on Saturday 20 Dec 2014 (Local Time) from KMGW Reporting Station
Broken Clouds Broken Clouds  
Wind Chill: 29°   Ceiling: 2600
Heat Index: 29°   Visibility: 10mi
Dew Point: 17°   Wind: 3mph
Humidity: 61%   Direction: 60°ENE
Pressure: 30.26"   Gusts: NA
Location:  39.6697°N, 80.398°W
Report Text: KMGW 201353Z 06003KT 10SM BKN026 M02/M08 A3026 RMK AO2 SLP260 T10171083
Loading
Personal Weather Stations






























Interactive Weather Map New forecast layout! Learn more

10-Day Weather Forecast

Advertisements
Track Severe Weather on mobile